Time;durP1;ratioP1;P1;durP2;ratioP2;P2;SDS_P1;SDS_P2;PMS_P1;PMS_P2;Temp;Humidity;BMP_temperature;BMP_pressure;BME280_temperature;BME280_humidity;BME280_pressure;Samples;Min_cycle;Max_cycle;Signal;HPM_P1;HPM_P2
2022/06/15 04:05:46;;;;;;;3.80;2.83;;;14.10;99.90;;;;;;5054824;28;20488;-69
2022/06/15 04:08:39;;;;;;;3.67;3.37;;;14.00;99.90;;;;;;5056609;28;20789;-69
2022/06/15 04:11:10;;;;;;;3.23;2.87;;;14.10;99.90;;;;;;5056859;28;20399;-68
2022/06/15 04:13:36;;;;;;;3.73;3.47;;;14.20;99.90;;;;;;5056198;28;20423;-67
2022/06/15 04:16:07;;;;;;;5.03;3.07;;;14.60;99.90;;;;;;5054788;28;20498;-67
2022/06/15 04:18:33;;;;;;;4.93;4.53;;;15.00;99.90;;;;;;5055970;28;20423;-67
2022/06/15 04:20:59;;;;;;;6.33;3.40;;;15.40;99.90;;;;;;5056485;28;20420;-67
2022/06/15 04:23:24;;;;;;;3.37;3.00;;;15.70;99.90;;;;;;5055872;28;20473;-67
2022/06/15 04:25:58;;;;;;;2.80;2.60;;;15.80;99.90;;;;;;5056477;28;20196;-67
2022/06/15 04:28:25;;;;;;;3.97;3.67;;;16.00;99.90;;;;;;5056193;28;20178;-67
2022/06/15 04:30:50;;;;;;;4.60;4.13;;;16.10;99.90;;;;;;5055808;28;20502;-67
2022/06/15 04:33:17;;;;;;;3.70;3.40;;;16.10;99.90;;;;;;5054838;28;20439;-67
2022/06/15 04:35:43;;;;;;;4.57;3.87;;;16.20;99.90;;;;;;5055732;28;20223;-67
2022/06/15 04:38:10;;;;;;;5.50;3.53;;;16.30;99.90;;;;;;5056061;28;20493;-67
2022/06/15 04:40:37;;;;;;;4.30;3.13;;;16.40;99.90;;;;;;5055989;28;20949;-67
2022/06/15 04:43:04;;;;;;;3.77;3.47;;;16.60;99.90;;;;;;5055563;28;20807;-66
2022/06/15 04:45:29;;;;;;;4.17;3.60;;;16.70;99.90;;;;;;5055341;28;20523;-67
2022/06/15 04:47:55;;;;;;;3.70;3.30;;;16.80;99.90;;;;;;5054973;28;20923;-67
2022/06/15 04:50:21;;;;;;;4.10;3.13;;;16.90;99.90;;;;;;5055848;28;20299;-68
2022/06/15 04:52:46;;;;;;;3.37;3.17;;;17.00;99.90;;;;;;5055441;28;20184;-67
2022/06/15 04:55:16;;;;;;;5.70;4.13;;;17.10;99.90;;;;;;5055609;28;20678;-67
2022/06/15 04:57:42;;;;;;;6.03;4.13;;;17.10;99.90;;;;;;5048748;28;20168;-66
2022/06/15 05:00:12;;;;;;;4.30;3.03;;;17.10;99.90;;;;;;5046613;28;20994;-67
2022/06/15 05:02:37;;;;;;;4.03;3.03;;;17.10;99.90;;;;;;5045809;28;20225;-69
2022/06/15 05:05:03;;;;;;;3.97;3.57;;;17.10;99.90;;;;;;5051540;28;20997;-68
2022/06/15 05:07:29;;;;;;;4.30;3.23;;;17.20;99.90;;;;;;5055190;28;20178;-66
2022/06/15 05:09:56;;;;;;;3.80;3.40;;;17.30;99.90;;;;;;5055565;28;20417;-65
2022/06/15 05:12:22;;;;;;;3.30;3.07;;;17.30;99.90;;;;;;5036292;28;20249;-65
2022/06/15 05:14:48;;;;;;;4.53;3.13;;;17.50;99.90;;;;;;5036798;28;20448;-64
2022/06/15 05:17:18;;;;;;;4.10;3.17;;;17.70;99.90;;;;;;5055196;28;20378;-64
2022/06/15 05:19:44;;;;;;;3.03;2.83;;;18.00;99.90;;;;;;5055547;28;20220;-65
2022/06/15 05:22:10;;;;;;;3.90;3.60;;;18.20;99.90;;;;;;5054965;28;20450;-72
2022/06/15 05:24:37;;;;;;;4.90;4.13;;;18.40;99.90;;;;;;5054851;28;20243;-63
2022/06/15 05:27:04;;;;;;;3.53;3.23;;;18.50;99.90;;;;;;5037151;28;20414;-63
2022/06/15 05:29:30;;;;;;;4.30;3.83;;;18.60;99.90;;;;;;5054735;28;20954;-64
2022/06/15 05:31:56;;;;;;;4.33;3.57;;;18.60;99.90;;;;;;5054850;28;20414;-62
2022/06/15 05:34:22;;;;;;;3.10;2.90;;;18.70;99.90;;;;;;5053742;28;20455;-64
2022/06/15 05:36:49;;;;;;;3.80;3.40;;;18.70;99.90;;;;;;5054478;28;20856;-64
2022/06/15 05:39:14;;;;;;;3.20;2.90;;;18.80;99.90;;;;;;5054779;28;20422;-66
2022/06/15 05:41:41;;;;;;;3.37;3.07;;;18.90;99.90;;;;;;5054876;28;20942;-65
2022/06/15 05:46:47;;;;;;;4.00;3.60;;;19.20;99.20;;;;;;5054367;28;20458;-67
2022/06/15 05:49:13;;;;;;;3.10;2.90;;;19.40;99.60;;;;;;5054403;28;20774;-68
2022/06/15 05:51:40;;;;;;;3.47;2.70;;;19.50;98.80;;;;;;5054558;28;20177;-67
2022/06/15 05:54:07;;;;;;;4.10;3.30;;;19.60;98.50;;;;;;5053880;28;20193;-66
2022/06/15 05:56:33;;;;;;;3.50;3.20;;;19.80;98.10;;;;;;5054635;28;20449;-62
2022/06/15 05:58:59;;;;;;;3.50;3.20;;;19.80;98.20;;;;;;5054481;28;20447;-62
2022/06/15 06:01:31;;;;;;;5.80;3.00;;;19.80;97.60;;;;;;5054366;28;20396;-63
2022/06/15 06:03:57;;;;;;;7.33;3.67;;;19.80;97.70;;;;;;5053168;28;20443;-62
2022/06/15 06:06:22;;;;;;;3.60;3.30;;;19.80;97.40;;;;;;5034642;28;20424;-63
2022/06/15 06:08:49;;;;;;;3.53;3.00;;;19.90;97.60;;;;;;5049066;28;20416;-64
2022/06/15 06:11:16;;;;;;;3.07;2.87;;;19.90;97.80;;;;;;5054357;28;20209;-64
2022/06/15 06:13:42;;;;;;;3.40;3.10;;;19.90;97.30;;;;;;5053214;28;20450;-63
2022/06/15 06:16:07;;;;;;;3.73;3.53;;;19.90;97.80;;;;;;5054201;28;20420;-64
2022/06/15 06:18:33;;;;;;;4.37;2.87;;;19.90;97.50;;;;;;5053949;28;20406;-63
2022/06/15 06:20:59;;;;;;;2.73;2.53;;;19.90;96.60;;;;;;5053654;28;20423;-63
2022/06/15 06:23:24;;;;;;;3.07;2.50;;;19.90;97.00;;;;;;5052564;28;20204;-63
2022/06/15 06:25:52;;;;;;;3.03;2.73;;;19.90;97.20;;;;;;5035608;28;20553;-64
2022/06/15 06:28:27;;;;;;;3.13;2.40;;;19.90;97.40;;;;;;5054027;28;20574;-64
2022/06/15 06:30:54;;;;;;;2.77;2.57;;;20.00;97.60;;;;;;5053336;28;20424;-63
2022/06/15 06:33:20;;;;;;;3.70;2.80;;;20.20;97.20;;;;;;5053106;28;20918;-63
2022/06/15 06:35:46;;;;;;;2.53;2.33;;;20.30;97.80;;;;;;5053378;28;20480;-63
2022/06/15 06:38:13;;;;;;;2.90;2.70;;;20.50;97.20;;;;;;5035083;28;20763;-63
2022/06/15 06:40:39;;;;;;;3.03;2.83;;;20.60;97.00;;;;;;5053449;28;20193;-63
2022/06/15 06:43:05;;;;;;;2.87;2.67;;;20.70;97.10;;;;;;5052928;28;20431;-63
2022/06/15 06:45:30;;;;;;;2.63;2.43;;;20.80;95.70;;;;;;5049781;28;20417;-64
2022/06/15 06:47:56;;;;;;;3.13;2.83;;;20.90;96.30;;;;;;5053263;28;20174;-63
2022/06/15 06:50:23;;;;;;;4.33;3.60;;;21.00;96.70;;;;;;5053606;28;20184;-63
2022/06/15 06:52:49;;;;;;;2.80;2.60;;;21.10;96.20;;;;;;5046115;28;20528;-64
2022/06/15 06:55:15;;;;;;;2.80;2.60;;;21.40;96.10;;;;;;5052967;28;20436;-64
2022/06/15 06:57:41;;;;;;;4.93;3.53;;;21.60;95.10;;;;;;5053491;28;20417;-64
2022/06/15 07:00:08;;;;;;;3.40;3.13;;;21.90;95.20;;;;;;5053338;28;20526;-64
2022/06/15 07:02:33;;;;;;;3.70;3.40;;;22.00;95.30;;;;;;5052999;28;20171;-64
2022/06/15 07:04:59;;;;;;;2.60;2.50;;;22.10;95.00;;;;;;5052735;28;20462;-64
2022/06/15 07:07:25;;;;;;;3.47;3.17;;;22.30;94.30;;;;;;5053344;28;20164;-63
2022/06/15 07:09:50;;;;;;;3.00;2.67;;;22.40;94.80;;;;;;5035095;28;20187;-63
2022/06/15 07:12:16;;;;;;;3.33;3.10;;;22.60;94.50;;;;;;5034504;28;20179;-64
2022/06/15 07:14:42;;;;;;;4.87;3.10;;;22.70;94.20;;;;;;5052972;28;20403;-65
2022/06/15 07:17:08;;;;;;;3.80;3.50;;;22.80;94.00;;;;;;5036075;28;20577;-64
2022/06/15 07:19:33;;;;;;;3.90;3.30;;;22.90;93.60;;;;;;5049985;28;20203;-64
2022/06/15 07:21:59;;;;;;;5.37;3.10;;;22.90;94.00;;;;;;5051493;28;20212;-62
2022/06/15 07:24:24;;;;;;;4.23;3.90;;;23.10;94.20;;;;;;5042243;28;20203;-62
2022/06/15 07:26:50;;;;;;;5.90;3.27;;;23.50;94.20;;;;;;5037003;28;20181;-64
2022/06/15 07:29:20;;;;;;;5.53;3.40;;;24.00;93.30;;;;;;5048230;28;20170;-65
2022/06/15 07:31:49;;;;;;;4.10;3.70;;;24.80;91.90;;;;;;5050945;28;20597;-64
2022/06/15 07:34:15;;;;;;;3.57;3.27;;;25.60;90.90;;;;;;5016507;28;20423;-68
2022/06/15 07:36:46;;;;;;;3.47;3.17;;;26.50;88.70;;;;;;5036726;28;20426;-66
2022/06/15 07:39:18;;;;;;;3.23;2.93;;;27.40;85.80;;;;;;5036306;28;20201;-67
2022/06/15 07:41:45;;;;;;;4.17;3.80;;;28.60;81.90;;;;;;5037027;28;20392;-69
2022/06/15 07:44:11;;;;;;;3.73;3.43;;;29.90;76.90;;;;;;5017548;28;20435;-68
2022/06/15 07:46:37;;;;;;;3.80;2.90;;;31.00;72.50;;;;;;5036961;28;20416;-67
2022/06/15 07:51:59;;;;;;;3.80;3.50;;;33.40;65.10;;;;;;5048093;28;20543;-69
2022/06/15 07:54:26;;;;;;;3.60;3.40;;;35.00;59.70;;;;;;5043213;28;20484;-68
2022/06/15 07:56:53;;;;;;;4.00;3.30;;;36.10;57.30;;;;;;5041761;28;20427;-66
2022/06/15 07:59:19;;;;;;;4.13;3.73;;;36.70;55.50;;;;;;5050063;28;20427;-66
2022/06/15 08:01:45;;;;;;;4.00;3.70;;;37.30;54.00;;;;;;5046645;28;20411;-68
2022/06/15 08:04:12;;;;;;;3.50;3.23;;;37.80;51.90;;;;;;5037750;28;20458;-67
2022/06/15 08:06:41;;;;;;;3.60;3.30;;;37.70;50.80;;;;;;5038681;28;20204;-66
2022/06/15 08:09:09;;;;;;;3.37;3.17;;;37.50;50.10;;;;;;5055339;28;20423;-69
2022/06/15 08:11:36;;;;;;;3.50;3.20;;;37.40;50.00;;;;;;5047363;28;22085;-68
2022/06/15 08:14:02;;;;;;;3.93;3.47;;;37.50;49.80;;;;;;5046365;28;20806;-68
2022/06/15 08:16:28;;;;;;;3.57;3.37;;;37.70;50.40;;;;;;5030225;28;20424;-66
2022/06/15 08:18:57;;;;;;;3.93;3.63;;;38.20;50.60;;;;;;5032853;28;20460;-68
2022/06/15 08:21:27;;;;;;;4.13;3.93;;;39.00;48.60;;;;;;5052351;28;20186;-64
2022/06/15 08:23:55;;;;;;;4.00;3.70;;;39.50;46.90;;;;;;5049201;28;20448;-67
2022/06/15 08:26:25;;;;;;;4.20;3.90;;;39.30;45.70;;;;;;5046218;28;20420;-65
2022/06/15 08:28:57;;;;;;;3.47;3.27;;;39.30;46.10;;;;;;5052830;28;20427;-66
2022/06/15 08:31:23;;;;;;;3.57;3.37;;;39.60;45.60;;;;;;5046401;28;20781;-63
2022/06/15 08:33:48;;;;;;;3.93;3.73;;;40.00;45.20;;;;;;5049552;28;20447;-66
2022/06/15 08:36:15;;;;;;;3.60;3.43;;;40.00;45.10;;;;;;5052209;28;20469;-63
2022/06/15 08:38:42;;;;;;;4.27;4.00;;;39.80;45.10;;;;;;5048330;28;20527;-68
2022/06/15 08:41:31;;;;;;;3.80;3.60;;;39.60;44.20;;;;;;5040845;28;20910;-62
2022/06/15 08:44:26;;;;;;;3.33;3.23;;;39.40;44.50;;;;;;5003699;28;20448;-64
2022/06/15 08:47:02;;;;;;;4.07;3.73;;;39.80;44.10;;;;;;5054187;28;20408;-65
2022/06/15 08:49:28;;;;;;;3.77;3.57;;;39.90;43.90;;;;;;5054981;28;20412;-66
2022/06/15 08:51:59;;;;;;;3.63;3.43;;;40.10;43.70;;;;;;5054451;28;20459;-64
2022/06/15 08:54:38;;;;;;;4.00;3.80;;;40.20;43.20;;;;;;5054694;28;20201;-64
2022/06/15 08:57:24;;;;;;;3.70;3.50;;;40.30;43.40;;;;;;5054322;28;20420;-64
2022/06/15 08:59:52;;;;;;;4.63;4.33;;;40.70;43.40;;;;;;5054769;28;20489;-65
2022/06/15 09:02:44;;;;;;;4.73;4.43;;;40.50;42.90;;;;;;5054403;28;20478;-64
2022/06/15 09:05:18;;;;;;;4.17;3.90;;;40.00;42.80;;;;;;5047806;28;20818;-65
2022/06/15 09:07:56;;;;;;;3.70;3.50;;;40.00;43.10;;;;;;5054226;28;20451;-65
2022/06/15 09:10:44;;;;;;;4.20;4.00;;;40.40;43.60;;;;;;5053804;28;20427;-64
2022/06/15 09:13:16;;;;;;;4.40;4.10;;;40.70;43.40;;;;;;5046102;28;20593;-65
2022/06/15 09:15:42;;;;;;;4.10;3.87;;;40.60;42.20;;;;;;5054569;28;20481;-65
2022/06/15 09:18:32;;;;;;;4.50;4.20;;;40.50;42.70;;;;;;5054417;28;20423;-64
2022/06/15 09:21:19;;;;;;;3.60;3.50;;;40.80;42.50;;;;;;5051623;28;20785;-66
2022/06/15 09:23:54;;;;;;;4.30;4.10;;;40.90;42.10;;;;;;5054406;28;20444;-64
2022/06/15 09:26:29;;;;;;;4.47;4.23;;;41.20;41.80;;;;;;5046876;28;20935;-65
2022/06/15 09:29:33;;;;;;;4.33;4.07;;;40.90;41.40;;;;;;5052833;28;20458;-66
2022/06/15 09:32:25;;;;;;;4.17;3.97;;;40.90;41.40;;;;;;5009267;28;20430;-67
2022/06/15 09:35:09;;;;;;;4.07;3.87;;;40.50;42.10;;;;;;5053549;28;20427;-69
2022/06/15 09:37:36;;;;;;;3.87;3.67;;;40.80;41.50;;;;;;5053756;28;20514;-69
2022/06/15 09:40:04;;;;;;;3.67;3.50;;;41.00;41.30;;;;;;5053789;28;20428;-68
2022/06/15 09:42:33;;;;;;;4.23;3.93;;;41.50;42.10;;;;;;5053636;28;21288;-68
2022/06/15 09:45:06;;;;;;;4.47;4.27;;;41.80;41.80;;;;;;5035465;28;20983;-71
2022/06/15 09:47:56;;;;;;;5.07;4.77;;;41.70;38.80;;;;;;5043272;28;20507;-68
2022/06/15 09:50:27;;;;;;;6.93;6.53;;;41.60;40.70;;;;;;5040426;28;20816;-68
2022/06/15 09:53:21;;;;;;;4.90;4.50;;;41.50;40.30;;;;;;5052990;28;20491;-68
2022/06/15 09:55:53;;;;;;;4.25;4.05;;;41.70;39.00;;;;;;5045424;28;20196;-67
2022/06/15 09:58:21;;;;;;;4.18;3.97;;;41.90;39.40;;;;;;5053168;28;20185;-67
2022/06/15 10:00:48;;;;;;;5.05;4.85;;;42.00;39.30;;;;;;5054278;28;20189;-67
2022/06/15 10:03:39;;;;;;;4.28;4.07;;;42.00;40.50;;;;;;5053434;28;20209;-67
2022/06/15 10:06:18;;;;;;;4.20;4.00;;;41.70;39.20;;;;;;5013576;28;20663;-70
2022/06/15 10:08:45;;;;;;;3.97;3.77;;;41.50;38.70;;;;;;5041742;28;20455;-66
2022/06/15 10:11:21;;;;;;;4.00;3.80;;;41.50;38.90;;;;;;5042571;28;20752;-71
2022/06/15 10:13:46;;;;;;;4.20;3.90;;;41.70;39.00;;;;;;5048312;28;20526;-69
2022/06/15 10:16:15;;;;;;;4.40;4.10;;;41.40;38.70;;;;;;5048304;28;20252;-66
2022/06/15 10:18:49;;;;;;;4.10;3.90;;;41.10;38.60;;;;;;5047010;28;20566;-64
2022/06/15 10:21:15;;;;;;;4.40;4.20;;;40.90;39.70;;;;;;5045081;28;20821;-66
2022/06/15 10:23:55;;;;;;;4.10;3.70;;;41.00;39.00;;;;;;5040874;28;20428;-65
2022/06/15 10:26:23;;;;;;;3.73;3.43;;;41.10;39.10;;;;;;5045260;28;20173;-63
2022/06/15 10:28:49;;;;;;;3.80;3.60;;;40.70;39.30;;;;;;5042054;28;20511;-64
2022/06/15 10:31:22;;;;;;;4.03;3.70;;;40.40;39.10;;;;;;5053623;28;20778;-65
2022/06/15 10:33:50;;;;;;;3.70;3.50;;;40.40;39.50;;;;;;5053417;28;20271;-63
2022/06/15 10:36:22;;;;;;;3.40;3.30;;;39.80;38.00;;;;;;5053257;28;20412;-63
2022/06/15 10:38:59;;;;;;;3.83;3.53;;;39.60;38.40;;;;;;5039336;28;20409;-63
2022/06/15 10:41:46;;;;;;;3.40;3.20;;;39.30;39.60;;;;;;5044947;28;20423;-65
2022/06/15 10:44:14;;;;;;;3.73;3.53;;;39.10;40.20;;;;;;5052543;28;20436;-65
2022/06/15 10:46:56;;;;;;;3.03;2.90;;;38.50;39.50;;;;;;5052175;28;20434;-63
2022/06/15 10:49:23;;;;;;;3.70;3.50;;;38.50;40.30;;;;;;5052542;28;20444;-67
2022/06/15 10:51:50;;;;;;;3.53;3.33;;;38.30;40.90;;;;;;5052137;28;20447;-67
2022/06/15 11:03:17;;;;;;;3.50;3.30;;;37.60;41.50;;;;;;5047025;28;20447;-65
2022/06/15 11:05:48;;;;;;;8.80;3.20;;;37.50;42.40;;;;;;5034727;28;20439;-67
2022/06/15 11:08:18;;;;;;;3.37;3.17;;;37.30;42.00;;;;;;5029159;28;20458;-65
2022/06/15 11:10:48;;;;;;;3.47;3.27;;;37.00;41.60;;;;;;5047557;28;20972;-66
2022/06/15 11:13:20;;;;;;;3.07;2.87;;;36.80;41.70;;;;;;5051953;28;20501;-68
2022/06/15 11:18:39;;;;;;;2.70;2.50;;;35.40;42.50;;;;;;5044151;28;20482;-68
2022/06/15 11:21:23;;;;;;;3.57;3.30;;;34.50;42.90;;;;;;5051386;28;20432;-66
2022/06/15 11:24:02;;;;;;;3.00;2.80;;;33.70;45.00;;;;;;5049658;28;21059;-65
2022/06/15 11:26:52;;;;;;;3.60;3.30;;;33.10;46.90;;;;;;5052350;28;20401;-69
2022/06/15 11:29:36;;;;;;;2.77;2.57;;;32.60;46.60;;;;;;5043612;28;21039;-69
2022/06/15 11:32:20;;;;;;;4.17;3.87;;;32.10;45.30;;;;;;5043322;28;20424;-70
2022/06/15 11:35:00;;;;;;;3.30;3.00;;;31.70;46.90;;;;;;5048976;28;20478;-71
2022/06/15 11:37:57;;;;;;;2.60;2.50;;;31.10;49.00;;;;;;5051703;28;20947;-68
2022/06/15 11:40:42;;;;;;;2.57;2.37;;;30.80;48.40;;;;;;5036335;28;20410;-69
2022/06/15 11:43:22;;;;;;;4.10;2.63;;;30.60;46.40;;;;;;5034511;28;20405;-69
2022/06/15 11:46:06;;;;;;;2.83;2.63;;;30.30;47.00;;;;;;5052808;28;20444;-68
2022/06/15 11:48:54;;;;;;;3.17;2.60;;;30.10;47.20;;;;;;5034810;28;20831;-74
2022/06/15 11:51:44;;;;;;;3.50;3.20;;;30.00;47.80;;;;;;5052026;28;20789;-68
2022/06/15 11:54:22;;;;;;;2.50;2.40;;;29.90;49.70;;;;;;5050622;28;20485;-68
2022/06/15 11:57:03;;;;;;;3.30;2.50;;;29.80;48.90;;;;;;5049813;28;20419;-70
2022/06/15 11:59:48;;;;;;;2.80;2.60;;;29.70;48.60;;;;;;5051381;28;20511;-70
2022/06/15 12:02:33;;;;;;;2.40;2.20;;;29.50;47.80;;;;;;5050686;28;20393;-71
2022/06/15 12:05:16;;;;;;;3.73;3.37;;;29.50;49.30;;;;;;5050963;28;20457;-74
2022/06/15 12:08:23;;;;;;;2.80;2.60;;;29.40;51.20;;;;;;5031980;28;20422;-71
2022/06/15 12:10:53;;;;;;;3.20;2.90;;;29.40;51.00;;;;;;5051305;28;20509;-73
2022/06/15 12:13:35;;;;;;;4.40;3.40;;;29.40;52.20;;;;;;5051077;28;20446;-73
2022/06/15 12:16:11;;;;;;;3.57;2.80;;;29.50;50.80;;;;;;5047144;28;20420;-73
2022/06/15 12:19:05;;;;;;;3.30;3.10;;;29.50;50.80;;;;;;5043378;28;20807;-73
2022/06/15 12:21:53;;;;;;;2.53;2.43;;;29.40;51.60;;;;;;5050128;28;20389;-73
2022/06/15 12:24:37;;;;;;;3.27;2.93;;;29.40;52.00;;;;;;5036465;28;20524;-73
2022/06/15 12:27:16;;;;;;;3.00;2.80;;;29.50;52.00;;;;;;5054909;28;20413;-73
2022/06/15 12:30:09;;;;;;;3.87;3.50;;;29.70;51.80;;;;;;5055211;28;20502;-73
2022/06/15 12:32:43;;;;;;;2.80;2.70;;;29.80;52.00;;;;;;5052836;28;20422;-73
2022/06/15 12:35:15;;;;;;;3.37;3.07;;;29.90;52.50;;;;;;5054993;28;20410;-73
2022/06/15 12:37:56;;;;;;;2.90;2.70;;;30.10;52.20;;;;;;5054963;28;20884;-73
2022/06/15 12:40:33;;;;;;;2.70;2.50;;;30.20;48.80;;;;;;5055237;28;20455;-73
2022/06/15 12:43:25;;;;;;;2.73;2.10;;;30.20;48.60;;;;;;5049013;28;20423;-73
2022/06/15 12:45:56;;;;;;;2.67;2.53;;;30.20;47.00;;;;;;5048075;28;20881;-72
2022/06/15 12:48:43;;;;;;;3.13;2.93;;;30.20;48.20;;;;;;5054853;28;20468;-72
2022/06/15 12:52:03;;;;;;;2.20;2.10;;;30.10;47.10;;;;;;5052152;28;20394;-72
2022/06/15 12:54:53;;;;;;;2.70;2.53;;;30.10;47.50;;;;;;4968722;28;20466;-71
2022/06/15 12:57:27;;;;;;;2.70;2.50;;;30.10;48.40;;;;;;4973928;28;20435;-72
2022/06/15 13:00:07;;;;;;;2.53;2.33;;;30.10;47.20;;;;;;4973052;28;20465;-73
2022/06/15 13:03:11;;;;;;;2.10;2.00;;;30.00;47.70;;;;;;4968525;28;20410;-73
2022/06/15 13:05:38;;;;;;;2.27;1.90;;;30.00;48.30;;;;;;4973552;28;20417;-71
2022/06/15 13:08:14;;;;;;;2.70;2.50;;;29.90;48.50;;;;;;4973459;28;20954;-71
2022/06/15 13:11:11;;;;;;;2.93;2.57;;;29.90;48.30;;;;;;4972418;28;20394;-72
2022/06/15 13:13:41;;;;;;;3.30;3.00;;;29.90;48.40;;;;;;4973334;28;20563;-72
2022/06/15 13:16:13;;;;;;;3.13;2.57;;;29.80;48.00;;;;;;4972958;28;20439;-72
2022/06/15 13:18:46;;;;;;;2.40;2.30;;;29.80;48.60;;;;;;4971375;28;20407;-72
2022/06/15 13:21:17;;;;;;;2.73;2.53;;;29.80;48.20;;;;;;4973296;28;20466;-73
2022/06/15 13:23:59;;;;;;;2.43;2.27;;;29.80;47.90;;;;;;4972530;28;20420;-71
2022/06/15 13:26:37;;;;;;;2.13;2.03;;;29.80;48.40;;;;;;5053741;28;20497;-72
2022/06/15 13:29:03;;;;;;;2.53;2.43;;;29.80;48.10;;;;;;5053705;28;20444;-72
2022/06/15 13:31:53;;;;;;;2.77;2.63;;;29.90;48.50;;;;;;5053251;28;20428;-72
2022/06/15 13:34:33;;;;;;;2.73;2.50;;;30.00;47.60;;;;;;5047389;28;20414;-71
2022/06/15 13:37:23;;;;;;;2.10;2.00;;;30.10;46.90;;;;;;5054081;28;20742;-72
2022/06/15 13:39:53;;;;;;;2.60;2.40;;;30.10;47.70;;;;;;5050947;28;20425;-72
2022/06/15 13:42:40;;;;;;;2.40;2.20;;;30.10;49.80;;;;;;5051736;28;20394;-71
2022/06/15 13:45:22;;;;;;;2.93;2.70;;;30.10;49.50;;;;;;5053692;28;20421;-72
2022/06/15 13:47:51;;;;;;;2.90;2.70;;;30.10;49.80;;;;;;5053516;28;20726;-72
2022/06/15 13:50:39;;;;;;;3.30;2.50;;;30.10;48.80;;;;;;5053960;28;20427;-73
2022/06/15 13:53:11;;;;;;;4.33;2.47;;;30.10;49.50;;;;;;5046338;28;20827;-72
2022/06/15 13:56:06;;;;;;;2.57;2.47;;;30.10;48.90;;;;;;5036444;28;20448;-72
2022/06/15 13:58:39;;;;;;;2.60;2.40;;;30.20;48.10;;;;;;5046411;28;20927;-73
2022/06/15 14:01:23;;;;;;;5.00;4.50;;;30.10;47.30;;;;;;5052912;28;20395;-73
2022/06/15 14:04:13;;;;;;;3.40;3.20;;;30.10;48.90;;;;;;5034937;28;20977;-72
2022/06/15 14:06:51;;;;;;;3.07;2.80;;;29.90;49.20;;;;;;5053171;28;20394;-73
2022/06/15 14:09:58;;;;;;;3.00;2.70;;;29.90;51.20;;;;;;5053182;28;20428;-73
2022/06/15 14:12:29;;;;;;;5.10;2.70;;;30.00;50.70;;;;;;5042853;28;20416;-73
2022/06/15 14:15:11;;;;;;;2.80;2.70;;;30.10;50.50;;;;;;5045334;28;20448;-73
2022/06/15 14:17:58;;;;;;;2.77;2.60;;;30.10;48.60;;;;;;5053072;28;20412;-74
2022/06/15 14:20:31;;;;;;;2.67;2.47;;;30.00;48.80;;;;;;5052834;28;20465;-72
2022/06/15 14:23:01;;;;;;;2.90;2.20;;;29.90;49.30;;;;;;5051207;28;20437;-73
2022/06/15 14:25:34;;;;;;;3.07;2.90;;;29.90;49.70;;;;;;5053464;28;20424;-72
2022/06/15 14:28:04;;;;;;;2.80;2.60;;;29.90;50.20;;;;;;5053070;28;20427;-73
2022/06/15 14:30:32;;;;;;;3.30;3.10;;;29.80;49.50;;;;;;5033843;28;20746;-72
2022/06/15 14:33:14;;;;;;;2.47;2.37;;;29.80;49.40;;;;;;5052201;28;22066;-73
2022/06/15 14:35:40;;;;;;;3.17;2.87;;;29.80;49.30;;;;;;5052470;28;20497;-73
2022/06/15 14:38:06;;;;;;;3.50;3.30;;;29.70;51.70;;;;;;5052334;28;20463;-73
2022/06/15 14:40:33;;;;;;;2.70;2.50;;;29.80;51.50;;;;;;5052964;28;20737;-73
2022/06/15 14:42:59;;;;;;;2.97;2.77;;;29.90;50.90;;;;;;5034036;28;21070;-73
2022/06/15 14:45:53;;;;;;;2.90;2.70;;;29.90;51.00;;;;;;5052593;28;20387;-72
2022/06/15 14:48:29;;;;;;;3.03;2.83;;;30.00;51.00;;;;;;4971583;28;20421;-72
2022/06/15 14:51:17;;;;;;;2.90;2.70;;;30.00;50.70;;;;;;4971496;28;20945;-73
2022/06/15 14:54:06;;;;;;;3.50;3.20;;;29.90;52.20;;;;;;4952561;29;20458;-74
2022/06/15 14:56:53;;;;;;;3.47;3.27;;;30.00;51.80;;;;;;4965419;28;20804;-74
2022/06/15 14:59:23;;;;;;;7.03;6.30;;;30.00;51.40;;;;;;4969707;28;20463;-72
2022/06/15 15:02:02;;;;;;;3.23;3.03;;;30.00;51.40;;;;;;4958643;28;20481;-73
2022/06/15 15:04:34;;;;;;;2.90;2.70;;;30.00;50.40;;;;;;4970452;28;20529;-72
2022/06/15 15:08:05;;;;;;;2.80;2.60;;;29.90;51.00;;;;;;4972080;28;20495;-72
2022/06/15 15:09:50;;;;;;;3.10;2.90;;;29.80;51.10;;;;;;4970597;28;20386;-73
2022/06/15 15:12:16;;;;;;;3.47;3.20;;;29.70;50.60;;;;;;4970699;28;20411;-72
2022/06/15 15:14:52;;;;;;;10.33;2.97;;;29.50;50.40;;;;;;4971735;28;20204;-72
2022/06/15 15:17:18;;;;;;;2.77;2.57;;;29.50;50.70;;;;;;4967939;28;20495;-72
2022/06/15 15:19:44;;;;;;;2.77;2.57;;;29.40;50.90;;;;;;4970678;28;20876;-73
2022/06/15 15:22:15;;;;;;;3.43;3.13;;;29.50;50.90;;;;;;4971484;28;20433;-77
2022/06/15 15:24:54;;;;;;;3.93;3.73;;;29.50;50.90;;;;;;4989807;28;20432;-73
2022/06/15 15:36:09;;;;;;;3.40;3.10;;;29.50;52.10;;;;;;5052530;28;20509;-72
2022/06/15 15:38:35;;;;;;;3.50;3.20;;;29.40;51.50;;;;;;5052487;28;20805;-72
2022/06/15 15:41:04;;;;;;;3.33;3.13;;;29.50;51.50;;;;;;5052805;28;20468;-72
2022/06/15 15:43:31;;;;;;;3.27;3.00;;;29.50;52.10;;;;;;5052536;28;20396;-72
2022/06/15 15:45:58;;;;;;;3.40;3.20;;;29.50;52.20;;;;;;5034906;28;20494;-72
2022/06/15 15:48:23;;;;;;;3.90;3.40;;;29.40;52.40;;;;;;5035267;28;20416;-72
2022/06/15 15:50:49;;;;;;;3.47;3.27;;;29.40;51.90;;;;;;5052724;28;20393;-71
2022/06/15 15:53:16;;;;;;;3.20;3.00;;;29.40;52.00;;;;;;5034323;28;20447;-72
2022/06/15 15:55:45;;;;;;;5.20;3.33;;;29.40;51.70;;;;;;5053100;28;20172;-72
2022/06/15 15:58:13;;;;;;;6.37;3.37;;;29.30;51.80;;;;;;5056938;28;20471;-72
2022/06/15 16:00:41;;;;;;;3.80;3.50;;;29.30;52.00;;;;;;5056179;28;20433;-72
2022/06/15 16:03:12;;;;;;;3.00;2.80;;;29.30;52.10;;;;;;5055799;28;20438;-72
2022/06/15 16:05:38;;;;;;;3.27;2.97;;;29.30;52.00;;;;;;5056246;28;20428;-72
2022/06/15 16:08:07;;;;;;;3.77;3.37;;;29.30;52.10;;;;;;5055710;28;20478;-72
2022/06/15 16:10:36;;;;;;;3.30;3.10;;;29.30;52.10;;;;;;5056212;28;20454;-72
2022/06/15 16:13:03;;;;;;;3.77;2.80;;;29.30;52.50;;;;;;5056025;28;20736;-72
2022/06/15 16:15:29;;;;;;;3.20;2.90;;;29.30;52.20;;;;;;5056230;28;20937;-72
2022/06/15 16:17:56;;;;;;;6.93;3.30;;;29.30;52.40;;;;;;5056453;28;20400;-72
2022/06/15 16:20:25;;;;;;;3.57;3.27;;;29.30;52.40;;;;;;5056035;28;20454;-72
2022/06/15 16:22:53;;;;;;;4.00;3.70;;;29.30;53.40;;;;;;5055558;28;20400;-71
2022/06/15 16:25:21;;;;;;;3.60;3.30;;;29.30;53.60;;;;;;5055811;28;20404;-72
2022/06/15 16:27:48;;;;;;;3.37;3.17;;;29.30;53.60;;;;;;5055966;28;20420;-72
2022/06/15 16:30:15;;;;;;;4.50;3.17;;;29.30;53.40;;;;;;5036974;28;20932;-73
2022/06/15 16:32:42;;;;;;;3.23;3.03;;;29.30;52.80;;;;;;5055341;28;20402;-70
2022/06/15 16:35:09;;;;;;;3.50;3.20;;;29.30;53.30;;;;;;5055751;28;20911;-74
2022/06/15 16:37:35;;;;;;;2.90;2.70;;;29.30;52.90;;;;;;5055537;28;20423;-72
2022/06/15 16:40:01;;;;;;;3.60;3.30;;;29.20;53.00;;;;;;5037841;28;20808;-71
2022/06/15 16:42:27;;;;;;;3.30;3.10;;;29.20;53.30;;;;;;5055970;28;20398;-72
2022/06/15 16:44:52;;;;;;;3.23;3.03;;;29.20;53.10;;;;;;5055339;28;20671;-72
2022/06/15 16:47:18;;;;;;;3.20;3.00;;;29.20;53.00;;;;;;5055951;28;20184;-71
2022/06/15 16:49:44;;;;;;;3.90;3.70;;;29.20;52.60;;;;;;5037997;28;20185;-74
2022/06/15 16:52:09;;;;;;;4.57;4.30;;;29.10;52.70;;;;;;5055285;28;20208;-72
2022/06/15 16:54:38;;;;;;;5.27;5.00;;;29.10;52.10;;;;;;5055280;28;20200;-71
2022/06/15 16:57:04;;;;;;;3.37;2.93;;;29.10;52.40;;;;;;5055388;28;20191;-72
2022/06/15 16:59:32;;;;;;;4.03;3.73;;;29.00;51.00;;;;;;5055393;28;20512;-72
2022/06/15 17:01:59;;;;;;;3.83;3.10;;;29.00;51.00;;;;;;5055585;28;20461;-72
2022/06/15 17:04:25;;;;;;;3.20;2.90;;;28.90;50.70;;;;;;5054366;28;20458;-71
2022/06/15 17:06:56;;;;;;;3.73;3.40;;;28.90;50.70;;;;;;5054824;28;20422;-71
2022/06/15 17:09:23;;;;;;;3.40;3.20;;;28.80;50.90;;;;;;5054784;28;20760;-72
2022/06/15 17:11:50;;;;;;;3.20;3.00;;;28.80;51.20;;;;;;5055095;28;20425;-72
2022/06/15 17:14:21;;;;;;;3.53;2.80;;;28.70;50.70;;;;;;5054577;28;20428;-71
2022/06/15 17:16:46;;;;;;;4.00;2.63;;;28.60;50.80;;;;;;5055592;28;20377;-72
2022/06/15 17:19:12;;;;;;;2.90;2.70;;;28.60;50.60;;;;;;5055336;28;20432;-71
2022/06/15 17:21:41;;;;;;;2.97;2.77;;;28.60;50.70;;;;;;5054994;28;20302;-72
2022/06/15 17:24:08;;;;;;;2.60;2.50;;;28.50;50.80;;;;;;5054492;28;20426;-72
2022/06/15 17:26:38;;;;;;;2.80;2.60;;;28.40;50.80;;;;;;5054695;28;20495;-71
2022/06/15 17:29:04;;;;;;;4.20;3.90;;;28.40;50.50;;;;;;5041675;28;20449;-72
2022/06/15 17:31:37;;;;;;;2.90;2.70;;;28.30;50.70;;;;;;5054773;28;20388;-71
2022/06/15 17:34:03;;;;;;;3.27;3.07;;;28.20;50.50;;;;;;5054745;28;20424;-72
2022/06/15 17:36:28;;;;;;;3.10;2.80;;;28.20;50.60;;;;;;5054939;28;20423;-71
2022/06/15 17:38:55;;;;;;;3.50;3.20;;;28.10;51.00;;;;;;5054252;28;20456;-72
2022/06/15 17:41:29;;;;;;;3.37;3.17;;;28.00;50.90;;;;;;5054563;28;20174;-71
2022/06/15 17:43:55;;;;;;;5.67;3.10;;;28.00;50.60;;;;;;5053989;28;20851;-72
2022/06/15 17:46:23;;;;;;;2.97;2.77;;;28.00;50.30;;;;;;5054802;28;20806;-71